»·PEaware :: N431JP KSNA-KSNA

N431JP :: KSNA-KSNA

FLIGHT INFORMATION

Flight Status: Arrived
Operator: Privately registered:
United States
More flights under this callsign
Pilot: Fabricio F. (2576)
Aircraft: Diamond DA-40
(DA40)
More flights by this aircraft type
Origin: KSNA John Wayne-Orange Co
United States
Destination: KSNA John Wayne-Orange Co
United States
More flights between these airports :: More routes between these airports
Route: KSLI KEMT KCNO
File this flight plan on PilotEdge
Remarks:
Altitude:
(Current/Filed)
0ft
Speed:
(Current/Filed)
0kts
Departed: 29-Nov-21 07:54 PM
Arrived: 29-Nov-21 08:34 PM
Distance/Time
Traveled:
0nm/0:40
Distance/Time
To Go:
Arrived

Flight Plot

Page will automatically refresh every two minutes.

Flight plan parsing failed; only flown route is shown


Map Options




Map Legend


Flown Route
Filed Route
Departure Airport
Arrival Airport
Navaid (VOR, NDB)
Fix

Horizontal Profiles

Position Reports

Time Latitude Longitude Heading Altitude Ground
Speed
29-Nov-21 19:39 33.666506 -117.872439 76 60ft 0kts
29-Nov-21 19:40 33.666506 -117.872439 76 60ft 0kts
29-Nov-21 19:41 33.666506 -117.872439 76 60ft 0kts
29-Nov-21 19:42 33.666506 -117.872439 76 60ft 0kts
29-Nov-21 19:43 33.666506 -117.872439 76 60ft 0kts
29-Nov-21 19:44 33.666506 -117.872439 76 60ft 0kts
29-Nov-21 19:45 33.666506 -117.872439 76 60ft 0kts
29-Nov-21 19:46 33.666652 -117.872362 322 59ft 10kts
29-Nov-21 19:47 33.668996 -117.871091 41 57ft 13kts
29-Nov-21 19:48 33.672894 -117.867528 42 57ft 7kts
29-Nov-21 19:49 33.676023 -117.865925 27 54ft 18kts
29-Nov-21 19:50 33.678484 -117.864336 26 47ft 14kts
29-Nov-21 19:51 33.679531 -117.863687 24 46ft 0kts
29-Nov-21 19:52 33.679724 -117.863578 20 45ft 5kts
29-Nov-21 19:53 33.676831 -117.866172 210 55ft 55kts
29-Nov-21 19:54 33.659798 -117.881929 231 844ft 88kts
29-Nov-21 19:56 33.645098 -117.904999 232 915ft 84kts
29-Nov-21 19:57 33.631077 -117.926713 235 1097ft 83kts
29-Nov-21 19:58 33.624931 -117.949295 297 1408ft 80kts
29-Nov-21 19:59 33.635954 -117.973322 297 1652ft 82kts
29-Nov-21 20:00 33.649550 -117.997322 314 1656ft 96kts
29-Nov-21 20:01 33.663907 -118.019545 303 2041ft 80kts
29-Nov-21 20:02 33.677409 -118.042642 316 2402ft 111kts
29-Nov-21 20:03 33.707801 -118.061964 355 2374ft 131kts
29-Nov-21 20:04 33.743750 -118.062661 3 2482ft 129kts
29-Nov-21 20:05 33.777835 -118.053840 22 2669ft 129kts
29-Nov-21 20:06 33.810373 -118.035220 25 2791ft 130kts
29-Nov-21 20:07 33.846111 -118.035984 348 2753ft 129kts
29-Nov-21 20:08 33.880903 -118.049655 326 2145ft 132kts
29-Nov-21 20:09 33.912620 -118.065315 353 1869ft 121kts
29-Nov-21 20:10 33.946296 -118.068389 338 1950ft 121kts
29-Nov-21 20:11 33.978806 -118.074524 17 2074ft 120kts
29-Nov-21 20:12 34.011305 -118.061072 24 2114ft 123kts
29-Nov-21 20:13 34.041590 -118.041932 32 2239ft 122kts
29-Nov-21 20:14 34.050284 -118.006902 113 2382ft 121kts
29-Nov-21 20:15 34.031101 -117.971868 127 2473ft 125kts
29-Nov-21 20:15 34.010356 -117.947428 142 2558ft 126kts
29-Nov-21 20:17 33.992036 -117.903327 89 2581ft 127kts
29-Nov-21 20:18 33.992868 -117.860929 99 2634ft 128kts
29-Nov-21 20:19 33.983399 -117.819699 109 2698ft 127kts
29-Nov-21 20:20 33.974505 -117.778311 103 2752ft 127kts
29-Nov-21 20:20 33.963270 -117.745256 119 2791ft 128kts
29-Nov-21 20:22 33.943103 -117.701131 113 2807ft 129kts
29-Nov-21 20:23 33.933075 -117.660118 122 2828ft 128kts
29-Nov-21 20:24 33.904783 -117.641786 208 2780ft 133kts
29-Nov-21 20:24 33.885446 -117.668162 241 2905ft 128kts
29-Nov-21 20:25 33.863815 -117.702658 228 2933ft 130kts
29-Nov-21 20:26 33.835463 -117.730021 219 2913ft 134kts
29-Nov-21 20:28 33.800372 -117.758617 200 2917ft 131kts
29-Nov-21 20:28 33.773853 -117.775654 224 2943ft 128kts
29-Nov-21 20:29 33.746902 -117.804205 225 2697ft 114kts
29-Nov-21 20:30 33.725912 -117.827295 220 1402ft 90kts
29-Nov-21 20:31 33.705336 -117.847146 213 612ft 88kts
29-Nov-21 20:32 33.684679 -117.861287 207 223ft 84kts
29-Nov-21 20:33 33.673894 -117.867537 151 59ft 0kts
29-Nov-21 20:34 33.673274 -117.867063 161 57ft 7kts
29-Nov-21 20:35 33.671323 -117.868721 213 55ft 14kts
29-Nov-21 20:36 33.668147 -117.871650 155 58ft 5kts
29-Nov-21 20:37 33.667750 -117.870936 212 56ft 0kts
29-Nov-21 20:38 33.667750 -117.870936 212 56ft 0kts
29-Nov-21 20:39 33.667750 -117.870936 212 56ft 0kts
29-Nov-21 20:40 33.667750 -117.870936 212 56ft 0kts

Navigation Log

Ident Type
Flight plan parsing failed, navigation log unavailable